sensor_id;sensor_type;location;lat;lon;timestamp;temperature;humidity
26408;DHT22;14583;43.604;1.364;2024-02-26T00:02:23;8.70;99.90
26408;DHT22;14583;43.604;1.364;2024-02-26T00:04:48;8.60;99.90
26408;DHT22;14583;43.604;1.364;2024-02-26T00:07:15;8.60;99.90
26408;DHT22;14583;43.604;1.364;2024-02-26T00:09:41;8.60;99.90
26408;DHT22;14583;43.604;1.364;2024-02-26T00:12:06;8.60;99.90
26408;DHT22;14583;43.604;1.364;2024-02-26T00:14:32;8.60;99.90
26408;DHT22;14583;43.604;1.364;2024-02-26T00:16:58;8.60;99.90
26408;DHT22;14583;43.604;1.364;2024-02-26T00:19:24;8.60;99.90
26408;DHT22;14583;43.604;1.364;2024-02-26T00:21:49;8.60;99.90
26408;DHT22;14583;43.604;1.364;2024-02-26T00:24:15;8.50;99.90
26408;DHT22;14583;43.604;1.364;2024-02-26T00:26:41;8.50;99.90
26408;DHT22;14583;43.604;1.364;2024-02-26T00:29:07;8.50;99.90
26408;DHT22;14583;43.604;1.364;2024-02-26T00:31:33;8.50;99.90
26408;DHT22;14583;43.604;1.364;2024-02-26T00:33:58;8.50;99.90
26408;DHT22;14583;43.604;1.364;2024-02-26T00:36:24;8.50;99.90
26408;DHT22;14583;43.604;1.364;2024-02-26T00:38:50;8.60;99.90
26408;DHT22;14583;43.604;1.364;2024-02-26T00:41:20;8.60;99.90
26408;DHT22;14583;43.604;1.364;2024-02-26T00:43:46;8.60;99.90
26408;DHT22;14583;43.604;1.364;2024-02-26T00:46:12;8.60;99.90
26408;DHT22;14583;43.604;1.364;2024-02-26T00:48:38;8.70;99.90
26408;DHT22;14583;43.604;1.364;2024-02-26T00:51:04;8.70;99.90
26408;DHT22;14583;43.604;1.364;2024-02-26T00:53:31;8.70;99.90
26408;DHT22;14583;43.604;1.364;2024-02-26T00:55:57;8.70;99.90
26408;DHT22;14583;43.604;1.364;2024-02-26T00:58:25;8.70;99.90
26408;DHT22;14583;43.604;1.364;2024-02-26T01:00:51;8.70;99.90
26408;DHT22;14583;43.604;1.364;2024-02-26T01:03:19;8.70;99.90
26408;DHT22;14583;43.604;1.364;2024-02-26T01:05:45;8.70;99.90
26408;DHT22;14583;43.604;1.364;2024-02-26T01:08:11;8.60;99.90
26408;DHT22;14583;43.604;1.364;2024-02-26T01:10:37;8.50;99.90
26408;DHT22;14583;43.604;1.364;2024-02-26T01:13:02;8.50;99.90
26408;DHT22;14583;43.604;1.364;2024-02-26T01:15:28;8.50;99.90
26408;DHT22;14583;43.604;1.364;2024-02-26T01:17:54;8.50;99.90
26408;DHT22;14583;43.604;1.364;2024-02-26T01:20:20;8.50;99.90
26408;DHT22;14583;43.604;1.364;2024-02-26T01:22:46;8.50;99.90
26408;DHT22;14583;43.604;1.364;2024-02-26T01:25:12;8.50;99.90
26408;DHT22;14583;43.604;1.364;2024-02-26T01:27:38;8.50;99.90
26408;DHT22;14583;43.604;1.364;2024-02-26T01:30:05;8.50;99.90
26408;DHT22;14583;43.604;1.364;2024-02-26T01:32:31;8.50;99.90
26408;DHT22;14583;43.604;1.364;2024-02-26T01:34:57;8.50;99.90
26408;DHT22;14583;43.604;1.364;2024-02-26T01:37:23;8.50;99.90
26408;DHT22;14583;43.604;1.364;2024-02-26T01:39:49;8.50;99.90
26408;DHT22;14583;43.604;1.364;2024-02-26T01:42:15;8.50;99.90
26408;DHT22;14583;43.604;1.364;2024-02-26T01:44:40;8.50;99.90
26408;DHT22;14583;43.604;1.364;2024-02-26T01:47:09;8.50;99.90
26408;DHT22;14583;43.604;1.364;2024-02-26T01:49:36;8.50;99.90
26408;DHT22;14583;43.604;1.364;2024-02-26T01:52:03;8.50;99.90
26408;DHT22;14583;43.604;1.364;2024-02-26T01:54:30;8.40;99.90
26408;DHT22;14583;43.604;1.364;2024-02-26T01:56:56;8.50;99.90
26408;DHT22;14583;43.604;1.364;2024-02-26T01:59:23;8.50;99.90
26408;DHT22;14583;43.604;1.364;2024-02-26T02:01:54;8.40;99.90
26408;DHT22;14583;43.604;1.364;2024-02-26T02:04:21;8.40;99.90
26408;DHT22;14583;43.604;1.364;2024-02-26T02:06:48;8.40;99.90
26408;DHT22;14583;43.604;1.364;2024-02-26T02:09:14;8.40;99.90
26408;DHT22;14583;43.604;1.364;2024-02-26T02:11:40;8.30;99.90
26408;DHT22;14583;43.604;1.364;2024-02-26T02:14:06;8.30;99.90
26408;DHT22;14583;43.604;1.364;2024-02-26T02:16:32;8.30;99.90
26408;DHT22;14583;43.604;1.364;2024-02-26T02:18:58;8.30;99.90
26408;DHT22;14583;43.604;1.364;2024-02-26T02:21:24;8.20;99.90
26408;DHT22;14583;43.604;1.364;2024-02-26T02:23:50;8.20;99.90
26408;DHT22;14583;43.604;1.364;2024-02-26T02:26:16;8.20;99.90
26408;DHT22;14583;43.604;1.364;2024-02-26T02:28:42;8.20;99.90
26408;DHT22;14583;43.604;1.364;2024-02-26T02:31:08;8.10;99.90
26408;DHT22;14583;43.604;1.364;2024-02-26T02:33:34;8.00;99.90
26408;DHT22;14583;43.604;1.364;2024-02-26T02:36:00;8.00;99.90
26408;DHT22;14583;43.604;1.364;2024-02-26T02:38:26;8.00;99.90
26408;DHT22;14583;43.604;1.364;2024-02-26T02:40:53;8.00;99.90
26408;DHT22;14583;43.604;1.364;2024-02-26T02:43:18;8.00;99.90
26408;DHT22;14583;43.604;1.364;2024-02-26T02:45:44;8.00;99.90
26408;DHT22;14583;43.604;1.364;2024-02-26T02:48:11;8.00;99.90
26408;DHT22;14583;43.604;1.364;2024-02-26T02:50:37;8.00;99.90
26408;DHT22;14583;43.604;1.364;2024-02-26T02:53:03;8.10;99.90
26408;DHT22;14583;43.604;1.364;2024-02-26T02:55:28;8.10;99.90
26408;DHT22;14583;43.604;1.364;2024-02-26T02:57:54;8.10;99.90
26408;DHT22;14583;43.604;1.364;2024-02-26T03:00:20;8.00;99.90
26408;DHT22;14583;43.604;1.364;2024-02-26T03:02:48;8.00;99.90
26408;DHT22;14583;43.604;1.364;2024-02-26T03:05:14;8.20;99.90
26408;DHT22;14583;43.604;1.364;2024-02-26T03:07:40;8.30;99.90
26408;DHT22;14583;43.604;1.364;2024-02-26T03:10:06;8.30;99.90
26408;DHT22;14583;43.604;1.364;2024-02-26T03:12:33;8.50;99.90
26408;DHT22;14583;43.604;1.364;2024-02-26T03:14:59;8.60;99.90
26408;DHT22;14583;43.604;1.364;2024-02-26T03:17:28;8.60;99.90
26408;DHT22;14583;43.604;1.364;2024-02-26T03:19:54;8.60;99.90
26408;DHT22;14583;43.604;1.364;2024-02-26T03:22:20;8.70;99.90
26408;DHT22;14583;43.604;1.364;2024-02-26T03:24:46;8.60;99.90
26408;DHT22;14583;43.604;1.364;2024-02-26T03:27:12;8.60;99.90
26408;DHT22;14583;43.604;1.364;2024-02-26T03:29:38;8.60;99.90
26408;DHT22;14583;43.604;1.364;2024-02-26T03:32:05;8.60;99.90
26408;DHT22;14583;43.604;1.364;2024-02-26T03:34:32;8.70;99.90
26408;DHT22;14583;43.604;1.364;2024-02-26T03:37:00;8.70;99.90
26408;DHT22;14583;43.604;1.364;2024-02-26T03:39:25;8.80;99.90
26408;DHT22;14583;43.604;1.364;2024-02-26T03:41:51;8.80;99.90
26408;DHT22;14583;43.604;1.364;2024-02-26T03:44:17;8.80;99.90
26408;DHT22;14583;43.604;1.364;2024-02-26T03:46:43;8.80;99.90
26408;DHT22;14583;43.604;1.364;2024-02-26T03:49:09;8.90;99.90
26408;DHT22;14583;43.604;1.364;2024-02-26T03:51:35;8.90;99.90
26408;DHT22;14583;43.604;1.364;2024-02-26T03:54:01;8.90;99.90
26408;DHT22;14583;43.604;1.364;2024-02-26T03:56:27;8.90;99.90
26408;DHT22;14583;43.604;1.364;2024-02-26T03:58:53;9.00;99.90
26408;DHT22;14583;43.604;1.364;2024-02-26T04:01:19;9.00;99.90
26408;DHT22;14583;43.604;1.364;2024-02-26T04:03:45;9.00;99.90
26408;DHT22;14583;43.604;1.364;2024-02-26T04:06:11;9.20;99.90
26408;DHT22;14583;43.604;1.364;2024-02-26T04:08:40;9.30;99.90
26408;DHT22;14583;43.604;1.364;2024-02-26T04:11:06;9.30;99.90
26408;DHT22;14583;43.604;1.364;2024-02-26T04:13:36;9.30;99.90
26408;DHT22;14583;43.604;1.364;2024-02-26T04:16:04;9.50;99.90
26408;DHT22;14583;43.604;1.364;2024-02-26T04:18:29;9.60;99.90
26408;DHT22;14583;43.604;1.364;2024-02-26T04:20:55;9.50;99.90
26408;DHT22;14583;43.604;1.364;2024-02-26T04:23:22;9.60;99.90
26408;DHT22;14583;43.604;1.364;2024-02-26T04:25:48;9.60;99.90
26408;DHT22;14583;43.604;1.364;2024-02-26T04:28:16;9.70;99.90
26408;DHT22;14583;43.604;1.364;2024-02-26T04:30:41;9.70;99.90
26408;DHT22;14583;43.604;1.364;2024-02-26T04:33:07;9.80;99.90
26408;DHT22;14583;43.604;1.364;2024-02-26T04:35:33;9.80;99.90
26408;DHT22;14583;43.604;1.364;2024-02-26T04:38:00;9.70;99.90
26408;DHT22;14583;43.604;1.364;2024-02-26T04:40:26;9.70;99.90
26408;DHT22;14583;43.604;1.364;2024-02-26T04:42:53;9.70;99.90
26408;DHT22;14583;43.604;1.364;2024-02-26T04:45:19;9.70;99.90
26408;DHT22;14583;43.604;1.364;2024-02-26T04:47:45;9.70;99.90
26408;DHT22;14583;43.604;1.364;2024-02-26T04:50:12;9.60;99.90
26408;DHT22;14583;43.604;1.364;2024-02-26T04:52:37;9.70;99.90
26408;DHT22;14583;43.604;1.364;2024-02-26T04:55:03;9.80;99.90
26408;DHT22;14583;43.604;1.364;2024-02-26T04:57:29;9.80;99.90
26408;DHT22;14583;43.604;1.364;2024-02-26T04:59:55;9.70;99.90
26408;DHT22;14583;43.604;1.364;2024-02-26T05:02:21;9.70;99.90
26408;DHT22;14583;43.604;1.364;2024-02-26T05:04:46;9.60;99.90
26408;DHT22;14583;43.604;1.364;2024-02-26T05:07:12;9.60;99.90
26408;DHT22;14583;43.604;1.364;2024-02-26T05:09:38;9.60;99.90
26408;DHT22;14583;43.604;1.364;2024-02-26T05:12:04;9.70;99.90
26408;DHT22;14583;43.604;1.364;2024-02-26T05:14:29;9.70;99.90
26408;DHT22;14583;43.604;1.364;2024-02-26T05:16:55;9.60;99.90
26408;DHT22;14583;43.604;1.364;2024-02-26T05:19:21;9.60;99.90
26408;DHT22;14583;43.604;1.364;2024-02-26T05:21:47;9.60;99.90
26408;DHT22;14583;43.604;1.364;2024-02-26T05:24:14;9.60;99.90
26408;DHT22;14583;43.604;1.364;2024-02-26T05:26:43;9.60;99.90
26408;DHT22;14583;43.604;1.364;2024-02-26T05:29:09;9.60;99.90
26408;DHT22;14583;43.604;1.364;2024-02-26T05:31:34;9.60;99.90
26408;DHT22;14583;43.604;1.364;2024-02-26T05:34:00;9.60;99.90
26408;DHT22;14583;43.604;1.364;2024-02-26T05:36:25;9.50;99.90
26408;DHT22;14583;43.604;1.364;2024-02-26T05:38:54;9.50;99.90
26408;DHT22;14583;43.604;1.364;2024-02-26T05:41:20;9.40;99.90
26408;DHT22;14583;43.604;1.364;2024-02-26T05:43:52;9.40;99.90
26408;DHT22;14583;43.604;1.364;2024-02-26T05:46:18;9.40;99.90
26408;DHT22;14583;43.604;1.364;2024-02-26T05:48:46;9.40;99.90
26408;DHT22;14583;43.604;1.364;2024-02-26T05:51:12;9.30;99.90
26408;DHT22;14583;43.604;1.364;2024-02-26T05:53:38;9.30;99.90
26408;DHT22;14583;43.604;1.364;2024-02-26T05:56:04;9.30;99.90
26408;DHT22;14583;43.604;1.364;2024-02-26T05:58:29;9.40;99.90
26408;DHT22;14583;43.604;1.364;2024-02-26T06:00:55;9.30;99.90
26408;DHT22;14583;43.604;1.364;2024-02-26T06:03:21;9.30;99.90
26408;DHT22;14583;43.604;1.364;2024-02-26T06:05:47;9.30;99.90
26408;DHT22;14583;43.604;1.364;2024-02-26T06:08:13;9.30;99.90
26408;DHT22;14583;43.604;1.364;2024-02-26T06:10:39;9.30;99.90
26408;DHT22;14583;43.604;1.364;2024-02-26T06:13:05;9.20;99.90
26408;DHT22;14583;43.604;1.364;2024-02-26T06:15:30;9.20;99.90
26408;DHT22;14583;43.604;1.364;2024-02-26T06:17:56;9.20;99.90
26408;DHT22;14583;43.604;1.364;2024-02-26T06:20:22;9.20;99.90
26408;DHT22;14583;43.604;1.364;2024-02-26T06:22:51;9.20;99.90
26408;DHT22;14583;43.604;1.364;2024-02-26T06:25:17;9.20;99.90
26408;DHT22;14583;43.604;1.364;2024-02-26T06:27:42;9.20;99.90
26408;DHT22;14583;43.604;1.364;2024-02-26T06:30:08;9.20;99.90
26408;DHT22;14583;43.604;1.364;2024-02-26T06:32:40;9.20;99.90
26408;DHT22;14583;43.604;1.364;2024-02-26T06:35:06;9.10;99.90
26408;DHT22;14583;43.604;1.364;2024-02-26T06:37:33;9.20;99.90
26408;DHT22;14583;43.604;1.364;2024-02-26T06:40:00;9.20;99.90
26408;DHT22;14583;43.604;1.364;2024-02-26T06:42:25;9.10;99.90
26408;DHT22;14583;43.604;1.364;2024-02-26T06:44:51;9.20;99.90
26408;DHT22;14583;43.604;1.364;2024-02-26T06:47:17;9.10;99.90
26408;DHT22;14583;43.604;1.364;2024-02-26T06:49:42;9.20;99.90
26408;DHT22;14583;43.604;1.364;2024-02-26T06:52:09;9.20;99.90
26408;DHT22;14583;43.604;1.364;2024-02-26T06:54:35;9.10;99.90
26408;DHT22;14583;43.604;1.364;2024-02-26T06:57:00;9.10;99.90
26408;DHT22;14583;43.604;1.364;2024-02-26T06:59:26;9.10;99.90
26408;DHT22;14583;43.604;1.364;2024-02-26T07:01:52;9.10;99.90
26408;DHT22;14583;43.604;1.364;2024-02-26T07:04:17;9.20;99.90
26408;DHT22;14583;43.604;1.364;2024-02-26T07:06:43;9.20;99.90
26408;DHT22;14583;43.604;1.364;2024-02-26T07:09:09;9.30;99.90
26408;DHT22;14583;43.604;1.364;2024-02-26T07:11:35;9.30;99.90
26408;DHT22;14583;43.604;1.364;2024-02-26T07:14:00;9.30;99.90
26408;DHT22;14583;43.604;1.364;2024-02-26T07:16:26;9.30;99.90
26408;DHT22;14583;43.604;1.364;2024-02-26T07:18:52;9.30;99.90
26408;DHT22;14583;43.604;1.364;2024-02-26T07:21:18;9.30;99.90
26408;DHT22;14583;43.604;1.364;2024-02-26T07:23:43;9.30;99.90
26408;DHT22;14583;43.604;1.364;2024-02-26T07:26:09;9.30;99.90
26408;DHT22;14583;43.604;1.364;2024-02-26T07:28:37;9.40;99.90
26408;DHT22;14583;43.604;1.364;2024-02-26T07:31:03;9.40;99.90
26408;DHT22;14583;43.604;1.364;2024-02-26T07:33:29;9.50;99.90
26408;DHT22;14583;43.604;1.364;2024-02-26T07:35:54;9.50;99.90
26408;DHT22;14583;43.604;1.364;2024-02-26T07:38:20;9.60;99.90
26408;DHT22;14583;43.604;1.364;2024-02-26T07:40:46;9.60;99.90
26408;DHT22;14583;43.604;1.364;2024-02-26T07:43:12;9.70;99.90
26408;DHT22;14583;43.604;1.364;2024-02-26T07:45:37;9.70;99.90
26408;DHT22;14583;43.604;1.364;2024-02-26T07:48:03;9.70;99.90
26408;DHT22;14583;43.604;1.364;2024-02-26T07:50:29;9.80;99.90
26408;DHT22;14583;43.604;1.364;2024-02-26T07:52:54;9.90;99.90
26408;DHT22;14583;43.604;1.364;2024-02-26T07:55:20;9.90;99.90
26408;DHT22;14583;43.604;1.364;2024-02-26T07:57:47;10.00;99.90
26408;DHT22;14583;43.604;1.364;2024-02-26T08:00:13;10.00;99.90
26408;DHT22;14583;43.604;1.364;2024-02-26T08:02:42;10.00;99.90
26408;DHT22;14583;43.604;1.364;2024-02-26T08:05:09;10.00;99.90
26408;DHT22;14583;43.604;1.364;2024-02-26T08:07:34;10.10;99.90
26408;DHT22;14583;43.604;1.364;2024-02-26T08:10:00;10.10;99.90
26408;DHT22;14583;43.604;1.364;2024-02-26T08:12:26;10.10;99.90
26408;DHT22;14583;43.604;1.364;2024-02-26T08:14:51;10.20;99.90
26408;DHT22;14583;43.604;1.364;2024-02-26T08:17:17;10.20;99.90
26408;DHT22;14583;43.604;1.364;2024-02-26T08:19:42;10.30;99.90
26408;DHT22;14583;43.604;1.364;2024-02-26T08:22:08;10.30;99.90
26408;DHT22;14583;43.604;1.364;2024-02-26T08:24:35;10.40;99.90
26408;DHT22;14583;43.604;1.364;2024-02-26T08:27:01;10.40;99.90
26408;DHT22;14583;43.604;1.364;2024-02-26T08:29:27;10.50;99.90
26408;DHT22;14583;43.604;1.364;2024-02-26T08:31:53;10.50;99.90
26408;DHT22;14583;43.604;1.364;2024-02-26T08:34:19;10.50;99.90
26408;DHT22;14583;43.604;1.364;2024-02-26T08:36:45;10.50;99.90
26408;DHT22;14583;43.604;1.364;2024-02-26T08:39:10;10.60;99.90
26408;DHT22;14583;43.604;1.364;2024-02-26T08:41:38;10.60;99.90
26408;DHT22;14583;43.604;1.364;2024-02-26T08:44:04;10.60;99.90
26408;DHT22;14583;43.604;1.364;2024-02-26T08:46:30;10.70;99.90
26408;DHT22;14583;43.604;1.364;2024-02-26T08:48:56;10.80;99.90
26408;DHT22;14583;43.604;1.364;2024-02-26T08:51:21;10.80;99.90
26408;DHT22;14583;43.604;1.364;2024-02-26T08:53:47;10.70;99.90
26408;DHT22;14583;43.604;1.364;2024-02-26T08:56:13;10.70;99.90
26408;DHT22;14583;43.604;1.364;2024-02-26T08:58:45;10.80;99.90
26408;DHT22;14583;43.604;1.364;2024-02-26T09:01:16;10.80;99.90
26408;DHT22;14583;43.604;1.364;2024-02-26T09:03:42;10.90;99.90
26408;DHT22;14583;43.604;1.364;2024-02-26T09:06:07;10.90;99.90
26408;DHT22;14583;43.604;1.364;2024-02-26T09:08:33;10.90;99.90
26408;DHT22;14583;43.604;1.364;2024-02-26T09:11:01;11.00;99.90
26408;DHT22;14583;43.604;1.364;2024-02-26T09:13:27;11.00;99.90
26408;DHT22;14583;43.604;1.364;2024-02-26T09:15:52;11.10;99.90
26408;DHT22;14583;43.604;1.364;2024-02-26T09:18:18;11.10;99.90
26408;DHT22;14583;43.604;1.364;2024-02-26T09:20:44;11.20;99.90
26408;DHT22;14583;43.604;1.364;2024-02-26T09:23:09;11.40;99.90
26408;DHT22;14583;43.604;1.364;2024-02-26T09:25:35;11.30;99.90
26408;DHT22;14583;43.604;1.364;2024-02-26T09:28:01;11.20;99.90
26408;DHT22;14583;43.604;1.364;2024-02-26T09:30:27;11.10;99.90
26408;DHT22;14583;43.604;1.364;2024-02-26T09:32:52;11.10;99.90
26408;DHT22;14583;43.604;1.364;2024-02-26T09:35:18;11.20;99.90
26408;DHT22;14583;43.604;1.364;2024-02-26T09:37:44;11.20;99.90
26408;DHT22;14583;43.604;1.364;2024-02-26T09:40:10;11.30;99.90
26408;DHT22;14583;43.604;1.364;2024-02-26T09:42:44;11.30;99.90
26408;DHT22;14583;43.604;1.364;2024-02-26T09:45:12;11.40;99.90
26408;DHT22;14583;43.604;1.364;2024-02-26T09:47:42;11.30;99.90
26408;DHT22;14583;43.604;1.364;2024-02-26T09:50:09;11.50;99.90
26408;DHT22;14583;43.604;1.364;2024-02-26T09:52:38;11.60;99.90
26408;DHT22;14583;43.604;1.364;2024-02-26T09:55:04;11.70;99.90
26408;DHT22;14583;43.604;1.364;2024-02-26T09:57:31;11.80;99.90
26408;DHT22;14583;43.604;1.364;2024-02-26T09:59:59;11.90;99.90
26408;DHT22;14583;43.604;1.364;2024-02-26T10:02:29;12.00;99.90
26408;DHT22;14583;43.604;1.364;2024-02-26T10:04:57;12.10;99.90
26408;DHT22;14583;43.604;1.364;2024-02-26T10:07:27;12.30;99.90
26408;DHT22;14583;43.604;1.364;2024-02-26T10:09:55;12.30;99.90
26408;DHT22;14583;43.604;1.364;2024-02-26T10:12:23;12.30;99.90
26408;DHT22;14583;43.604;1.364;2024-02-26T10:14:51;12.20;99.90
26408;DHT22;14583;43.604;1.364;2024-02-26T10:17:17;12.00;99.90
26408;DHT22;14583;43.604;1.364;2024-02-26T10:19:44;12.00;99.90
26408;DHT22;14583;43.604;1.364;2024-02-26T10:22:10;11.90;99.90
26408;DHT22;14583;43.604;1.364;2024-02-26T10:24:36;12.00;99.90
26408;DHT22;14583;43.604;1.364;2024-02-26T10:27:02;12.20;99.90
26408;DHT22;14583;43.604;1.364;2024-02-26T10:29:28;12.20;99.90
26408;DHT22;14583;43.604;1.364;2024-02-26T10:31:54;12.20;99.90
26408;DHT22;14583;43.604;1.364;2024-02-26T10:34:20;12.20;99.90
26408;DHT22;14583;43.604;1.364;2024-02-26T10:36:46;12.30;99.90
26408;DHT22;14583;43.604;1.364;2024-02-26T10:39:15;12.50;99.90
26408;DHT22;14583;43.604;1.364;2024-02-26T10:41:42;12.40;99.90
26408;DHT22;14583;43.604;1.364;2024-02-26T10:44:11;12.50;99.90
26408;DHT22;14583;43.604;1.364;2024-02-26T10:46:42;12.50;99.90
26408;DHT22;14583;43.604;1.364;2024-02-26T10:49:14;12.50;99.90
26408;DHT22;14583;43.604;1.364;2024-02-26T10:51:44;12.50;99.90
26408;DHT22;14583;43.604;1.364;2024-02-26T10:54:15;12.50;99.90
26408;DHT22;14583;43.604;1.364;2024-02-26T10:56:42;12.60;99.90
26408;DHT22;14583;43.604;1.364;2024-02-26T10:59:10;12.70;99.90
26408;DHT22;14583;43.604;1.364;2024-02-26T11:01:39;12.80;99.90
26408;DHT22;14583;43.604;1.364;2024-02-26T11:04:08;12.90;99.90
26408;DHT22;14583;43.604;1.364;2024-02-26T11:06:34;12.90;99.90
26408;DHT22;14583;43.604;1.364;2024-02-26T11:09:01;13.00;99.90
26408;DHT22;14583;43.604;1.364;2024-02-26T11:11:28;13.20;99.90
26408;DHT22;14583;43.604;1.364;2024-02-26T11:13:56;13.30;99.90
26408;DHT22;14583;43.604;1.364;2024-02-26T11:16:23;13.30;99.90
26408;DHT22;14583;43.604;1.364;2024-02-26T11:18:52;13.40;99.90
26408;DHT22;14583;43.604;1.364;2024-02-26T11:21:21;13.40;99.90
26408;DHT22;14583;43.604;1.364;2024-02-26T11:23:56;13.40;99.90
26408;DHT22;14583;43.604;1.364;2024-02-26T11:26:23;13.40;99.90
26408;DHT22;14583;43.604;1.364;2024-02-26T11:28:50;13.20;99.90
26408;DHT22;14583;43.604;1.364;2024-02-26T11:31:16;13.20;99.90
26408;DHT22;14583;43.604;1.364;2024-02-26T11:33:46;13.30;99.90
26408;DHT22;14583;43.604;1.364;2024-02-26T11:36:12;13.40;99.90
26408;DHT22;14583;43.604;1.364;2024-02-26T11:38:39;13.50;99.90
26408;DHT22;14583;43.604;1.364;2024-02-26T11:41:06;13.50;99.90
26408;DHT22;14583;43.604;1.364;2024-02-26T11:43:52;13.50;99.90
26408;DHT22;14583;43.604;1.364;2024-02-26T11:46:40;13.60;99.90
26408;DHT22;14583;43.604;1.364;2024-02-26T11:51:55;13.50;99.90
26408;DHT22;14583;43.604;1.364;2024-02-26T11:57:20;13.40;99.90
26408;DHT22;14583;43.604;1.364;2024-02-26T11:59:47;13.30;99.90
26408;DHT22;14583;43.604;1.364;2024-02-26T12:05:21;13.30;99.90
26408;DHT22;14583;43.604;1.364;2024-02-26T12:08:03;13.50;99.90
26408;DHT22;14583;43.604;1.364;2024-02-26T12:10:39;13.50;99.90
26408;DHT22;14583;43.604;1.364;2024-02-26T12:13:12;13.50;99.90
26408;DHT22;14583;43.604;1.364;2024-02-26T12:15:43;13.40;99.90
26408;DHT22;14583;43.604;1.364;2024-02-26T12:18:12;13.60;99.90
26408;DHT22;14583;43.604;1.364;2024-02-26T12:20:40;13.70;99.90
26408;DHT22;14583;43.604;1.364;2024-02-26T12:23:06;13.80;99.90
26408;DHT22;14583;43.604;1.364;2024-02-26T12:25:32;13.90;99.90
26408;DHT22;14583;43.604;1.364;2024-02-26T12:27:59;14.00;99.90
26408;DHT22;14583;43.604;1.364;2024-02-26T12:30:25;14.00;99.90
26408;DHT22;14583;43.604;1.364;2024-02-26T12:32:52;14.10;99.90
26408;DHT22;14583;43.604;1.364;2024-02-26T12:35:22;14.30;99.90
26408;DHT22;14583;43.604;1.364;2024-02-26T12:37:48;14.40;99.90
26408;DHT22;14583;43.604;1.364;2024-02-26T12:40:17;14.20;99.90
26408;DHT22;14583;43.604;1.364;2024-02-26T12:42:42;14.20;99.90
26408;DHT22;14583;43.604;1.364;2024-02-26T12:45:11;14.20;99.90
26408;DHT22;14583;43.604;1.364;2024-02-26T12:47:43;14.00;99.90
26408;DHT22;14583;43.604;1.364;2024-02-26T12:50:11;13.90;99.90
26408;DHT22;14583;43.604;1.364;2024-02-26T12:52:40;14.00;99.90
26408;DHT22;14583;43.604;1.364;2024-02-26T12:55:06;14.30;99.90
26408;DHT22;14583;43.604;1.364;2024-02-26T12:57:38;14.10;99.90
26408;DHT22;14583;43.604;1.364;2024-02-26T13:00:06;13.90;99.90
26408;DHT22;14583;43.604;1.364;2024-02-26T13:02:35;13.80;99.90
26408;DHT22;14583;43.604;1.364;2024-02-26T13:05:03;13.90;99.90
26408;DHT22;14583;43.604;1.364;2024-02-26T13:07:29;13.90;99.90
26408;DHT22;14583;43.604;1.364;2024-02-26T13:09:55;13.80;99.90
26408;DHT22;14583;43.604;1.364;2024-02-26T13:12:21;13.60;99.90
26408;DHT22;14583;43.604;1.364;2024-02-26T13:14:47;13.30;99.90
26408;DHT22;14583;43.604;1.364;2024-02-26T13:17:13;13.40;99.90
26408;DHT22;14583;43.604;1.364;2024-02-26T13:19:49;13.70;99.90
26408;DHT22;14583;43.604;1.364;2024-02-26T13:22:15;13.60;99.90
26408;DHT22;14583;43.604;1.364;2024-02-26T13:24:42;13.70;99.90
26408;DHT22;14583;43.604;1.364;2024-02-26T13:27:08;13.70;99.90
26408;DHT22;14583;43.604;1.364;2024-02-26T13:29:34;13.60;99.90
26408;DHT22;14583;43.604;1.364;2024-02-26T13:31:59;13.40;99.90
26408;DHT22;14583;43.604;1.364;2024-02-26T13:34:26;13.30;99.90
26408;DHT22;14583;43.604;1.364;2024-02-26T13:36:53;13.30;99.90
26408;DHT22;14583;43.604;1.364;2024-02-26T13:39:27;13.50;99.90
26408;DHT22;14583;43.604;1.364;2024-02-26T13:41:53;13.70;99.90
26408;DHT22;14583;43.604;1.364;2024-02-26T13:44:20;13.80;99.90
26408;DHT22;14583;43.604;1.364;2024-02-26T13:46:49;14.00;99.90
26408;DHT22;14583;43.604;1.364;2024-02-26T13:49:15;13.90;99.90
26408;DHT22;14583;43.604;1.364;2024-02-26T13:51:40;13.90;99.90
26408;DHT22;14583;43.604;1.364;2024-02-26T13:54:06;13.70;99.90
26408;DHT22;14583;43.604;1.364;2024-02-26T13:56:33;13.80;99.90
26408;DHT22;14583;43.604;1.364;2024-02-26T13:58:59;13.90;99.90
26408;DHT22;14583;43.604;1.364;2024-02-26T14:01:25;13.90;99.90
26408;DHT22;14583;43.604;1.364;2024-02-26T14:03:51;13.90;99.90
26408;DHT22;14583;43.604;1.364;2024-02-26T14:06:20;14.10;99.90
26408;DHT22;14583;43.604;1.364;2024-02-26T14:08:46;14.30;99.90
26408;DHT22;14583;43.604;1.364;2024-02-26T14:11:11;14.50;99.90
26408;DHT22;14583;43.604;1.364;2024-02-26T14:13:37;14.40;99.90
26408;DHT22;14583;43.604;1.364;2024-02-26T14:16:03;14.50;99.90
26408;DHT22;14583;43.604;1.364;2024-02-26T14:18:29;14.50;99.90
26408;DHT22;14583;43.604;1.364;2024-02-26T14:20:54;14.60;99.90
26408;DHT22;14583;43.604;1.364;2024-02-26T14:23:20;14.60;99.90
26408;DHT22;14583;43.604;1.364;2024-02-26T14:25:46;14.70;99.90
26408;DHT22;14583;43.604;1.364;2024-02-26T14:28:11;14.70;99.90
26408;DHT22;14583;43.604;1.364;2024-02-26T14:30:37;14.70;99.90
26408;DHT22;14583;43.604;1.364;2024-02-26T14:33:03;14.70;99.90
26408;DHT22;14583;43.604;1.364;2024-02-26T14:35:28;14.70;99.90
26408;DHT22;14583;43.604;1.364;2024-02-26T14:37:54;14.70;99.90
26408;DHT22;14583;43.604;1.364;2024-02-26T14:40:20;14.80;99.90
26408;DHT22;14583;43.604;1.364;2024-02-26T14:42:46;14.80;99.90
26408;DHT22;14583;43.604;1.364;2024-02-26T14:45:12;14.90;99.90
26408;DHT22;14583;43.604;1.364;2024-02-26T14:47:38;14.90;99.90
26408;DHT22;14583;43.604;1.364;2024-02-26T14:50:04;15.10;99.90
26408;DHT22;14583;43.604;1.364;2024-02-26T14:52:30;15.30;99.90
26408;DHT22;14583;43.604;1.364;2024-02-26T14:54:56;15.30;99.90
26408;DHT22;14583;43.604;1.364;2024-02-26T14:57:23;15.30;99.90
26408;DHT22;14583;43.604;1.364;2024-02-26T14:59:49;15.40;99.90
26408;DHT22;14583;43.604;1.364;2024-02-26T15:02:16;15.10;99.90
26408;DHT22;14583;43.604;1.364;2024-02-26T15:04:43;15.40;99.90
26408;DHT22;14583;43.604;1.364;2024-02-26T15:07:10;15.40;99.90
26408;DHT22;14583;43.604;1.364;2024-02-26T15:09:37;15.50;99.90
26408;DHT22;14583;43.604;1.364;2024-02-26T15:12:03;15.60;99.90
26408;DHT22;14583;43.604;1.364;2024-02-26T15:14:32;15.70;99.90
26408;DHT22;14583;43.604;1.364;2024-02-26T15:16:58;16.10;99.90
26408;DHT22;14583;43.604;1.364;2024-02-26T15:19:23;16.40;99.90
26408;DHT22;14583;43.604;1.364;2024-02-26T15:21:49;16.80;99.90
26408;DHT22;14583;43.604;1.364;2024-02-26T15:24:15;17.30;99.90
26408;DHT22;14583;43.604;1.364;2024-02-26T15:26:45;19.20;99.90
26408;DHT22;14583;43.604;1.364;2024-02-26T15:29:11;23.80;99.90
26408;DHT22;14583;43.604;1.364;2024-02-26T15:31:37;27.80;94.90
26408;DHT22;14583;43.604;1.364;2024-02-26T15:34:03;29.20;83.80
26408;DHT22;14583;43.604;1.364;2024-02-26T15:36:30;30.70;79.80
26408;DHT22;14583;43.604;1.364;2024-02-26T15:38:55;31.80;73.70
26408;DHT22;14583;43.604;1.364;2024-02-26T15:41:22;32.30;69.00
26408;DHT22;14583;43.604;1.364;2024-02-26T15:43:48;30.90;66.50